createdAt,value
2022-10-05T00:00:56.150Z,17.25
2022-10-05T00:03:37.031Z,18.65
2022-10-05T00:06:05.220Z,12.82
2022-10-05T00:08:35.234Z,16.10
2022-10-05T00:11:02.349Z,17.02
2022-10-05T00:13:30.990Z,15.77
2022-10-05T00:16:21.079Z,13.10
2022-10-05T00:18:53.678Z,16.48
2022-10-05T00:21:29.166Z,14.52
2022-10-05T00:23:58.243Z,17.83
2022-10-05T00:26:32.044Z,16.63
2022-10-05T00:28:58.980Z,15.30
2022-10-05T00:31:32.941Z,15.10
2022-10-05T00:33:59.930Z,15.70
2022-10-05T00:36:26.853Z,15.85
2022-10-05T00:38:55.359Z,17.95
2022-10-05T00:41:22.207Z,14.32
2022-10-05T00:44:46.859Z,18.70
2022-10-05T00:47:54.201Z,19.35
2022-10-05T00:51:18.005Z,25.25
2022-10-05T00:54:45.660Z,17.83
2022-10-05T00:57:51.205Z,15.55
2022-10-05T01:00:21.958Z,14.80
2022-10-05T01:03:15.261Z,20.27
2022-10-05T01:06:08.473Z,19.65
2022-10-05T01:09:36.226Z,19.67
2022-10-05T01:12:52.805Z,14.10
2022-10-05T01:15:37.127Z,18.40
2022-10-05T01:18:33.238Z,16.42
2022-10-05T01:21:18.692Z,17.02
2022-10-05T01:24:31.992Z,19.65
2022-10-05T01:27:29.373Z,21.13
2022-10-05T01:30:19.751Z,20.05
2022-10-05T01:33:07.624Z,18.65
2022-10-05T01:35:48.340Z,19.98
2022-10-05T01:38:28.145Z,21.60
2022-10-05T01:41:06.854Z,19.77
2022-10-05T01:43:56.282Z,18.65
2022-10-05T01:46:49.138Z,17.90
2022-10-05T01:49:55.068Z,20.23
2022-10-05T01:52:54.268Z,22.17
2022-10-05T01:55:56.615Z,17.98
2022-10-05T01:58:43.233Z,18.00
2022-10-05T02:01:38.006Z,18.30
2022-10-05T02:04:35.647Z,17.98
2022-10-05T02:07:15.498Z,16.40
2022-10-05T02:10:00.727Z,16.88
2022-10-05T02:12:35.159Z,16.05
2022-10-05T02:15:13.761Z,17.52
2022-10-05T02:17:52.059Z,17.70
2022-10-05T02:20:31.928Z,20.02
2022-10-05T02:23:07.425Z,16.55
2022-10-05T02:25:40.588Z,19.38
2022-10-05T02:28:21.965Z,19.58
2022-10-05T02:31:04.457Z,14.90
2022-10-05T02:33:34.807Z,22.27
2022-10-05T02:36:13.096Z,19.00
2022-10-05T02:39:02.585Z,18.90
2022-10-05T02:42:08.592Z,20.15
2022-10-05T02:45:46.646Z,15.95
2022-10-05T02:48:42.534Z,18.20
2022-10-05T02:51:16.659Z,20.02
2022-10-05T02:54:02.346Z,17.83
2022-10-05T02:57:16.672Z,19.27
2022-10-05T02:59:58.004Z,17.77
2022-10-05T03:02:58.704Z,23.15
2022-10-05T03:05:43.749Z,23.30
2022-10-05T03:08:16.606Z,18.00
2022-10-05T03:11:04.802Z,21.02
2022-10-05T03:13:47.693Z,15.50
2022-10-05T03:16:47.871Z,22.15
2022-10-05T03:19:41.710Z,18.50
2022-10-05T03:22:33.758Z,23.48
2022-10-05T03:25:40.101Z,18.15
2022-10-05T03:28:42.338Z,17.83
2022-10-05T03:32:14.056Z,19.73
2022-10-05T03:35:02.477Z,18.15
2022-10-05T03:38:30.856Z,18.77
2022-10-05T03:41:23.996Z,17.75
2022-10-05T03:44:33.698Z,14.95
2022-10-05T03:47:39.492Z,19.77
2022-10-05T03:50:43.053Z,20.90
2022-10-05T03:53:44.000Z,17.60
2022-10-05T03:56:26.884Z,18.83
2022-10-05T03:59:33.710Z,20.77
2022-10-05T04:02:19.981Z,21.20
2022-10-05T04:04:57.230Z,17.80
2022-10-05T04:07:56.808Z,18.58
2022-10-05T04:10:34.026Z,18.40
2022-10-05T04:13:18.650Z,20.25
2022-10-05T04:16:29.758Z,17.67
2022-10-05T04:19:19.282Z,21.02
2022-10-05T04:22:10.422Z,16.40
2022-10-05T04:24:46.212Z,18.50
2022-10-05T04:27:30.590Z,21.33
2022-10-05T04:30:13.239Z,22.13
2022-10-05T04:32:55.619Z,21.45
2022-10-05T04:35:41.140Z,22.65
2022-10-05T04:39:00.819Z,23.42
2022-10-05T04:42:09.566Z,19.52
2022-10-05T04:45:19.879Z,20.10
2022-10-05T04:48:19.954Z,19.77
2022-10-05T04:51:25.588Z,18.80
2022-10-05T04:54:30.404Z,17.55
2022-10-05T04:57:11.054Z,20.15
2022-10-05T05:00:05.842Z,21.52
2022-10-05T05:02:38.358Z,17.88
2022-10-05T05:05:33.976Z,20.40
2022-10-05T05:08:31.516Z,21.95
2022-10-05T05:11:25.876Z,19.77
2022-10-05T05:14:34.242Z,20.25
2022-10-05T05:17:19.074Z,21.40
2022-10-05T05:20:25.939Z,19.70
2022-10-05T05:23:51.892Z,28.50
2022-10-05T05:27:02.167Z,29.10
2022-10-05T05:30:16.664Z,28.73
2022-10-05T05:33:35.855Z,25.23
2022-10-05T05:36:46.825Z,17.73
2022-10-05T05:40:10.049Z,25.58
2022-10-05T05:43:19.807Z,24.05
2022-10-05T05:46:09.480Z,21.85
2022-10-05T05:48:49.106Z,23.83
2022-10-05T05:51:45.385Z,22.85
2022-10-05T05:54:23.665Z,24.45
2022-10-05T05:57:35.906Z,19.88
2022-10-05T06:00:06.119Z,20.95
2022-10-05T06:02:59.415Z,21.23
2022-10-05T06:05:45.012Z,19.08
2022-10-05T06:08:43.270Z,22.75
2022-10-05T06:11:17.680Z,29.00
2022-10-05T06:13:46.354Z,26.85
2022-10-05T06:16:55.735Z,21.13
2022-10-05T06:19:25.764Z,19.80
2022-10-05T06:22:13.362Z,20.08
2022-10-05T06:25:11.828Z,25.35
2022-10-05T06:28:10.826Z,19.42
2022-10-05T06:30:54.327Z,16.23
2022-10-05T06:33:50.673Z,18.23
2022-10-05T06:36:29.741Z,20.88
2022-10-05T06:39:29.177Z,19.50
2022-10-05T06:42:39.429Z,19.90
2022-10-05T06:45:48.634Z,19.48
2022-10-05T06:48:24.371Z,19.00
2022-10-05T06:51:28.556Z,21.23
2022-10-05T06:54:05.608Z,19.70
2022-10-05T06:57:10.500Z,18.13
2022-10-05T07:00:09.562Z,17.63
2022-10-05T07:02:45.099Z,16.48
2022-10-05T07:05:39.020Z,17.80
2022-10-05T07:08:12.222Z,26.13
2022-10-05T07:11:17.204Z,22.98
2022-10-05T07:14:05.464Z,20.92
2022-10-05T07:16:52.677Z,18.77
2022-10-05T07:20:01.067Z,19.50
2022-10-05T07:23:02.165Z,21.17
2022-10-05T07:25:50.424Z,17.08
2022-10-05T07:28:47.959Z,17.25
2022-10-05T07:31:33.566Z,18.60
2022-10-05T07:34:15.781Z,22.73
2022-10-05T07:37:21.910Z,16.25
2022-10-05T07:40:15.207Z,15.98
2022-10-05T07:46:03.105Z,15.50
2022-10-05T07:49:05.602Z,16.20
2022-10-05T07:51:50.346Z,16.25
2022-10-05T07:54:37.918Z,16.20
2022-10-05T07:57:07.794Z,18.05
2022-10-05T08:00:03.954Z,16.42
2022-10-05T08:02:44.429Z,18.00
2022-10-05T08:05:28.420Z,16.42
2022-10-05T08:08:35.992Z,19.80
2022-10-05T08:11:15.581Z,16.85
2022-10-05T08:13:55.866Z,17.35
2022-10-05T08:16:28.284Z,18.15
2022-10-05T08:19:06.100Z,17.98
2022-10-05T08:21:48.060Z,17.15
2022-10-05T08:24:51.773Z,18.42
2022-10-05T08:27:49.584Z,16.17
2022-10-05T08:30:17.522Z,19.17
2022-10-05T08:32:55.704Z,14.93
2022-10-05T08:35:55.720Z,17.05
2022-10-05T08:38:33.369Z,19.00
2022-10-05T08:41:38.074Z,17.90
2022-10-05T08:44:37.689Z,18.67
2022-10-05T08:47:10.197Z,22.10
2022-10-05T08:50:00.948Z,14.30
2022-10-05T08:52:39.232Z,16.02
2022-10-05T08:55:33.740Z,13.00
2022-10-05T08:58:30.603Z,14.23
2022-10-05T09:01:15.404Z,16.27
2022-10-05T09:04:38.774Z,17.70
2022-10-05T09:07:27.216Z,16.65
2022-10-05T09:10:25.069Z,13.55
2022-10-05T09:13:24.892Z,15.38
2022-10-05T09:16:22.496Z,13.90
2022-10-05T09:19:44.523Z,14.57
2022-10-05T09:22:35.242Z,13.15
2022-10-05T09:25:25.442Z,13.57
2022-10-05T09:27:58.823Z,13.88
2022-10-05T09:30:47.850Z,15.93
2022-10-05T09:33:30.050Z,14.30
2022-10-05T09:36:35.509Z,12.80
2022-10-05T09:39:40.894Z,16.75
2022-10-05T09:42:41.722Z,15.27
2022-10-05T09:45:57.917Z,12.07
2022-10-05T09:49:15.265Z,13.02
2022-10-05T09:52:17.934Z,12.60
2022-10-05T09:55:10.987Z,10.90
2022-10-05T09:58:16.099Z,11.57
2022-10-05T10:01:15.942Z,16.15
2022-10-05T10:04:48.284Z,11.40
2022-10-05T10:07:46.368Z,11.45
2022-10-05T10:10:16.056Z,12.15
2022-10-05T10:13:20.571Z,12.98
2022-10-05T10:16:15.836Z,15.05
2022-10-05T10:19:06.526Z,12.98
2022-10-05T10:22:53.323Z,13.13
2022-10-05T10:25:55.830Z,12.20
2022-10-05T10:28:46.872Z,10.82
2022-10-05T10:32:11.605Z,11.07
2022-10-05T10:35:19.401Z,14.48
2022-10-05T10:38:15.922Z,10.82
2022-10-05T10:41:16.777Z,14.77
2022-10-05T10:44:11.093Z,11.90
2022-10-05T10:46:50.353Z,9.82
2022-10-05T10:49:36.218Z,13.85
2022-10-05T10:52:38.921Z,12.88
2022-10-05T10:55:51.871Z,12.68
2022-10-05T10:58:43.851Z,15.85
2022-10-05T11:01:34.272Z,14.13
2022-10-05T11:04:13.212Z,12.15
2022-10-05T11:06:42.982Z,12.40
2022-10-05T11:09:50.712Z,11.93
2022-10-05T11:12:54.441Z,11.75
2022-10-05T11:15:50.460Z,14.95
2022-10-05T11:18:46.787Z,13.23
2022-10-05T11:21:48.430Z,10.77
2022-10-05T11:24:38.693Z,10.35
2022-10-05T11:27:30.209Z,14.52
2022-10-05T11:30:27.984Z,10.73
2022-10-05T11:32:57.715Z,12.20
2022-10-05T11:35:49.272Z,11.05
2022-10-05T11:38:53.161Z,17.60
2022-10-05T11:44:39.493Z,13.88
2022-10-05T11:47:58.741Z,12.65
2022-10-05T11:51:18.695Z,14.07
2022-10-05T11:54:18.667Z,12.73
2022-10-05T11:57:07.853Z,9.25
2022-10-05T12:00:07.154Z,12.52
2022-10-05T12:02:55.679Z,12.70
2022-10-05T12:17:38.027Z,12.25
2022-10-05T12:20:33.462Z,13.98
2022-10-05T12:23:34.662Z,13.18
2022-10-05T12:26:11.736Z,23.00
2022-10-05T12:28:47.592Z,13.65
2022-10-05T12:31:30.093Z,13.90
2022-10-05T12:34:13.426Z,10.60
2022-10-05T12:37:17.084Z,14.80
2022-10-05T12:40:02.638Z,10.43
2022-10-05T12:42:50.320Z,17.70
2022-10-05T12:45:38.408Z,14.10
2022-10-05T12:48:34.184Z,14.25
2022-10-05T12:51:22.148Z,12.88
2022-10-05T12:54:06.457Z,11.10
2022-10-05T12:57:08.727Z,12.10
2022-10-05T12:59:35.588Z,10.02
2022-10-05T13:02:13.964Z,12.25
2022-10-05T13:05:10.270Z,14.23
2022-10-05T13:08:09.329Z,11.15
2022-10-05T13:10:44.766Z,16.55
2022-10-05T13:13:45.109Z,13.20
2022-10-05T13:16:15.494Z,11.25
2022-10-05T13:19:04.339Z,12.35
2022-10-05T13:21:46.241Z,10.95
2022-10-05T13:24:26.596Z,15.55
2022-10-05T13:27:14.150Z,15.70
2022-10-05T13:29:55.808Z,14.13
2022-10-05T13:32:29.575Z,11.77
2022-10-05T13:35:29.764Z,14.32
2022-10-05T13:38:44.358Z,16.73
2022-10-05T13:41:39.257Z,15.30
2022-10-05T13:44:37.939Z,15.32
2022-10-05T13:47:22.789Z,14.70
2022-10-05T13:50:07.178Z,12.45
2022-10-05T13:53:00.174Z,17.20
2022-10-05T13:56:03.872Z,24.38
2022-10-05T13:58:46.171Z,27.75
2022-10-05T14:01:46.681Z,17.17
2022-10-05T14:04:22.189Z,20.67
2022-10-05T14:06:49.632Z,27.95
2022-10-05T14:09:22.291Z,23.08
2022-10-05T14:12:14.599Z,27.17
2022-10-05T14:14:52.404Z,18.88
2022-10-05T14:17:42.540Z,20.58
2022-10-05T14:20:28.317Z,18.15
2022-10-05T14:23:05.281Z,16.80
2022-10-05T14:25:53.654Z,16.88
2022-10-05T14:28:30.569Z,19.92
2022-10-05T14:31:00.179Z,19.20
2022-10-05T14:33:33.728Z,17.10
2022-10-05T14:36:01.149Z,33.53
2022-10-05T14:38:52.564Z,25.27
2022-10-05T14:41:27.703Z,28.02
2022-10-05T14:44:16.236Z,30.17
2022-10-05T14:47:02.685Z,22.48
2022-10-05T14:49:37.294Z,25.90
2022-10-05T14:52:34.159Z,22.02
2022-10-05T14:55:44.894Z,24.23
2022-10-05T14:58:14.832Z,18.77
2022-10-05T15:01:16.649Z,17.17
2022-10-05T15:03:57.291Z,27.63
2022-10-05T15:07:28.013Z,23.45
2022-10-05T15:10:27.006Z,26.17
2022-10-05T15:13:09.210Z,23.75
2022-10-05T15:15:59.544Z,23.77
2022-10-05T15:19:06.264Z,23.58
2022-10-05T15:22:29.363Z,21.58
2022-10-05T15:25:15.350Z,28.08
2022-10-05T15:28:19.494Z,35.88
2022-10-05T15:31:23.611Z,29.30
2022-10-05T15:34:05.167Z,29.63
2022-10-05T15:36:43.026Z,32.05
2022-10-05T15:39:28.484Z,31.45
2022-10-05T15:42:02.337Z,27.77
2022-10-05T15:45:06.966Z,33.78
2022-10-05T15:48:39.367Z,30.05
2022-10-05T15:51:30.716Z,27.90
2022-10-05T15:54:32.781Z,23.42
2022-10-05T15:57:36.697Z,23.45
2022-10-05T16:03:14.156Z,30.45
2022-10-05T16:06:08.694Z,25.92
2022-10-05T16:09:07.509Z,21.52
2022-10-05T16:12:14.288Z,17.92
2022-10-05T16:15:06.506Z,21.40
2022-10-05T16:17:42.656Z,26.17
2022-10-05T16:20:48.178Z,49.63
2022-10-05T16:23:41.722Z,25.08
2022-10-05T16:29:17.505Z,32.88
2022-10-05T16:32:00.202Z,34.95
2022-10-05T16:34:56.349Z,42.53
2022-10-05T16:37:50.074Z,47.28
2022-10-05T16:40:36.020Z,54.55
2022-10-05T16:43:22.294Z,51.20
2022-10-05T16:46:03.306Z,50.90
2022-10-05T16:49:15.879Z,47.08
2022-10-05T16:52:01.407Z,40.75
2022-10-05T16:54:28.247Z,37.72
2022-10-05T16:57:19.097Z,36.50
2022-10-05T17:00:15.988Z,30.27
2022-10-05T17:03:04.912Z,23.05
2022-10-05T17:06:17.022Z,19.02
2022-10-05T17:09:23.247Z,29.17
2022-10-05T17:12:08.414Z,27.30
2022-10-05T17:15:13.556Z,31.10
2022-10-05T17:18:09.178Z,21.05
2022-10-05T17:20:42.575Z,22.45
2022-10-05T17:23:33.840Z,24.27
2022-10-05T17:26:38.588Z,21.08
2022-10-05T17:29:15.403Z,24.02
2022-10-05T17:32:11.234Z,26.33
2022-10-05T17:35:02.848Z,30.05
2022-10-05T17:38:09.168Z,30.80
2022-10-05T17:40:39.145Z,30.58
2022-10-05T17:43:15.444Z,31.77
2022-10-05T17:45:42.311Z,28.55
2022-10-05T17:48:11.760Z,34.03
2022-10-05T17:51:06.500Z,28.35
2022-10-05T17:54:03.820Z,24.40
2022-10-05T17:56:53.322Z,23.45
2022-10-05T17:59:58.664Z,22.50
2022-10-05T18:02:40.409Z,24.08
2022-10-05T18:05:14.526Z,23.75
2022-10-05T18:07:48.215Z,24.98
2022-10-05T18:10:32.548Z,27.63
2022-10-05T18:12:59.394Z,28.83
2022-10-05T18:15:26.365Z,31.70
2022-10-05T18:17:57.484Z,26.80
2022-10-05T18:20:25.533Z,25.77
2022-10-05T18:23:01.615Z,27.95
2022-10-05T18:25:49.611Z,30.85
2022-10-05T18:28:39.245Z,41.35
2022-10-05T18:31:30.545Z,31.73
2022-10-05T18:34:09.088Z,30.15
2022-10-05T18:36:45.344Z,27.30
2022-10-05T18:40:05.791Z,24.90
2022-10-05T18:43:14.689Z,24.52
2022-10-05T18:46:15.248Z,18.20
2022-10-05T18:49:18.874Z,23.48
2022-10-05T18:52:21.268Z,30.42
2022-10-05T19:07:41.157Z,19.23
2022-10-05T19:10:25.806Z,26.23
2022-10-05T19:13:23.841Z,19.50
2022-10-05T19:16:18.883Z,16.85
2022-10-05T19:19:43.792Z,24.90
2022-10-05T19:22:32.265Z,25.98
2022-10-05T19:25:16.703Z,24.92
2022-10-05T19:28:13.712Z,46.40
2022-10-05T19:31:17.876Z,36.80
2022-10-05T19:34:23.694Z,34.30
2022-10-05T19:37:14.119Z,30.33
2022-10-05T19:39:55.535Z,23.85
2022-10-05T19:42:53.106Z,24.83
2022-10-05T19:45:27.195Z,27.13
2022-10-05T19:48:30.536Z,36.40
2022-10-05T19:51:03.486Z,28.83
2022-10-05T19:53:37.139Z,27.48
2022-10-05T19:56:35.348Z,23.80
2022-10-05T19:59:20.278Z,28.85
2022-10-05T20:01:53.779Z,32.05
2022-10-05T20:04:36.550Z,32.67
2022-10-05T20:07:04.107Z,25.33
2022-10-05T20:10:00.664Z,25.25
2022-10-05T20:12:51.460Z,24.52
2022-10-05T20:15:46.068Z,22.65
2022-10-05T20:19:06.733Z,24.42
2022-10-05T20:21:47.430Z,24.50
2022-10-05T20:24:17.935Z,25.85
2022-10-05T20:27:05.175Z,32.08
2022-10-05T20:29:43.928Z,34.45
2022-10-05T20:32:18.068Z,41.08
2022-10-05T20:34:49.352Z,39.78
2022-10-05T20:37:18.929Z,53.45
2022-10-05T20:39:48.065Z,37.90
2022-10-05T20:42:15.176Z,30.90
2022-10-05T20:44:44.525Z,26.75
2022-10-05T20:47:12.452Z,32.58
2022-10-05T20:49:44.788Z,34.92
2022-10-05T20:52:15.013Z,27.07
2022-10-05T20:54:42.316Z,24.80
2022-10-05T20:57:09.931Z,27.35
2022-10-05T20:59:37.459Z,29.38
2022-10-05T21:02:05.701Z,26.95
2022-10-05T21:04:40.841Z,30.77
2022-10-05T21:07:08.915Z,37.30
2022-10-05T21:09:38.390Z,36.00
2022-10-05T21:12:05.702Z,29.67
2022-10-05T21:14:34.399Z,29.23
2022-10-05T21:17:02.103Z,31.20
2022-10-05T21:19:29.780Z,28.02
2022-10-05T21:22:02.512Z,24.00
2022-10-05T21:24:29.699Z,31.85
2022-10-05T21:26:57.565Z,25.27
2022-10-05T21:29:24.776Z,28.92
2022-10-05T21:31:52.063Z,22.17
2022-10-05T21:34:19.205Z,22.25
2022-10-05T21:36:46.214Z,23.08
2022-10-05T21:39:13.172Z,23.98
2022-10-05T21:41:40.164Z,21.85
2022-10-05T21:44:07.102Z,22.17
2022-10-05T21:46:38.078Z,22.45
2022-10-05T21:49:08.008Z,21.15
2022-10-05T21:51:36.546Z,21.83
2022-10-05T21:54:11.533Z,20.45
2022-10-05T21:56:46.298Z,19.40
2022-10-05T21:59:19.231Z,27.25
2022-10-05T22:01:46.195Z,21.23
2022-10-05T22:04:14.966Z,20.65
2022-10-05T22:06:41.971Z,21.30
2022-10-05T22:09:09.275Z,18.80
2022-10-05T22:11:36.467Z,22.00
2022-10-05T22:14:03.826Z,26.83
2022-10-05T22:16:36.597Z,23.30
2022-10-05T22:19:10.759Z,19.20
2022-10-05T22:21:41.554Z,23.55
2022-10-05T22:24:11.499Z,21.13
2022-10-05T22:26:41.892Z,27.15
2022-10-05T22:29:09.699Z,23.25
2022-10-05T22:31:37.671Z,20.60
2022-10-05T22:34:04.951Z,21.00
2022-10-05T22:36:35.502Z,19.50
2022-10-05T22:39:02.700Z,20.38
2022-10-05T22:41:29.612Z,17.05
2022-10-05T22:43:56.503Z,19.70
2022-10-05T22:46:23.482Z,20.38
2022-10-05T22:48:50.462Z,19.27
2022-10-05T22:51:17.495Z,21.88
2022-10-05T22:53:44.406Z,17.15
2022-10-05T22:56:14.021Z,20.77
2022-10-05T22:58:42.603Z,18.80
2022-10-05T23:01:16.395Z,17.77
2022-10-05T23:03:44.340Z,19.30
2022-10-05T23:06:18.174Z,18.75
2022-10-05T23:08:46.748Z,17.98
2022-10-05T23:11:17.504Z,19.77
2022-10-05T23:13:45.094Z,20.58
2022-10-05T23:16:18.193Z,18.98
2022-10-05T23:18:49.061Z,19.95
2022-10-05T23:21:17.166Z,16.13
2022-10-05T23:23:48.999Z,15.55
2022-10-05T23:26:18.708Z,18.95
2022-10-05T23:28:49.209Z,18.90
2022-10-05T23:31:21.013Z,19.40
2022-10-05T23:33:48.469Z,18.15
2022-10-05T23:36:21.926Z,16.10
2022-10-05T23:38:49.431Z,19.02
2022-10-05T23:41:17.561Z,19.52
2022-10-05T23:43:44.582Z,20.25
2022-10-05T23:46:13.407Z,19.80
2022-10-05T23:48:40.696Z,15.77
2022-10-05T23:51:11.008Z,21.90
2022-10-05T23:53:38.217Z,18.88
2022-10-05T23:56:05.795Z,18.92
2022-10-05T23:58:32.938Z,19.42
